createdAt,value
2019-04-28T00:02:12.451Z,9.00
2019-04-28T00:04:42.245Z,8.90
2019-04-28T00:07:11.923Z,9.00
2019-04-28T00:09:41.657Z,9.00
2019-04-28T00:12:11.489Z,9.00
2019-04-28T00:14:41.793Z,9.00
2019-04-28T00:17:11.209Z,9.00
2019-04-28T00:19:40.870Z,9.00
2019-04-28T00:22:14.157Z,9.00
2019-04-28T00:24:51.410Z,9.00
2019-04-28T00:27:21.534Z,9.00
2019-04-28T00:29:51.778Z,8.90
2019-04-28T00:32:22.773Z,8.90
2019-04-28T00:34:51.333Z,8.90
2019-04-28T00:37:25.391Z,8.90
2019-04-28T00:39:57.580Z,8.90
2019-04-28T00:42:26.211Z,8.90
2019-04-28T00:44:54.867Z,8.90
2019-04-28T00:47:23.737Z,9.00
2019-04-28T00:49:52.243Z,8.90
2019-04-28T00:52:22.138Z,8.90
2019-04-28T00:54:52.597Z,8.90
2019-04-28T00:57:21.587Z,9.00
2019-04-28T00:59:58.264Z,9.00
2019-04-28T01:02:25.337Z,9.00
2019-04-28T01:04:53.839Z,8.90
2019-04-28T01:07:22.469Z,9.00
2019-04-28T01:09:51.641Z,9.00
2019-04-28T01:12:21.236Z,8.90
2019-04-28T01:14:52.926Z,8.90
2019-04-28T01:17:39.782Z,8.90
2019-04-28T01:20:10.291Z,8.90
2019-04-28T01:22:40.165Z,8.90
2019-04-28T01:25:10.660Z,8.90
2019-04-28T01:27:40.891Z,8.90
2019-04-28T01:30:13.295Z,8.90
2019-04-28T01:32:46.306Z,8.90
2019-04-28T01:35:15.097Z,8.80
2019-04-28T01:37:44.333Z,8.80
2019-04-28T01:40:12.980Z,8.80
2019-04-28T01:42:41.445Z,8.80
2019-04-28T01:45:10.602Z,8.80
2019-04-28T01:47:40.471Z,8.80
2019-04-28T01:50:11.066Z,8.80
2019-04-28T01:52:40.106Z,8.80
2019-04-28T01:55:10.414Z,8.90
2019-04-28T01:57:40.520Z,8.80
2019-04-28T02:00:22.259Z,8.80
2019-04-28T02:02:42.136Z,8.80
2019-04-28T02:05:11.285Z,8.80
2019-04-28T02:07:41.391Z,8.80
2019-04-28T02:10:10.395Z,8.80
2019-04-28T02:12:40.358Z,8.80
2019-04-28T02:15:10.471Z,8.80
2019-04-28T02:17:40.652Z,8.80
2019-04-28T02:20:10.433Z,8.70
2019-04-28T02:22:47.284Z,8.70
2019-04-28T02:25:19.559Z,8.70
2019-04-28T02:27:50.232Z,8.70
2019-04-28T02:30:22.610Z,8.70
2019-04-28T02:32:51.560Z,8.70
2019-04-28T02:35:21.365Z,8.60
2019-04-28T02:37:50.859Z,8.60
2019-04-28T02:40:20.891Z,8.60
2019-04-28T02:42:52.154Z,8.60
2019-04-28T02:45:23.239Z,8.60
2019-04-28T02:47:53.356Z,8.60
2019-04-28T02:50:26.317Z,8.50
2019-04-28T02:53:01.659Z,8.50
2019-04-28T02:55:31.634Z,8.50
2019-04-28T02:58:01.512Z,8.40
2019-04-28T03:00:31.742Z,8.40
2019-04-28T03:03:01.561Z,8.40
2019-04-28T03:05:51.186Z,8.30
2019-04-28T03:08:21.511Z,8.30
2019-04-28T03:10:50.889Z,8.20
2019-04-28T03:13:21.164Z,8.10
2019-04-28T03:15:52.588Z,8.10
2019-04-28T03:18:21.565Z,8.10
2019-04-28T03:20:51.530Z,8.00
2019-04-28T03:23:22.940Z,8.00
2019-04-28T03:26:05.385Z,8.00
2019-04-28T03:28:41.167Z,8.00
2019-04-28T03:31:50.995Z,7.90
2019-04-28T03:34:03.366Z,7.90
2019-04-28T03:36:33.003Z,7.90
2019-04-28T03:39:03.122Z,7.90
2019-04-28T03:41:31.747Z,7.90
2019-04-28T03:44:01.831Z,7.90
2019-04-28T03:46:31.964Z,8.00
2019-04-28T03:49:01.450Z,8.00
2019-04-28T03:51:30.935Z,8.00
2019-04-28T03:54:00.615Z,8.00
2019-04-28T03:56:31.029Z,8.00
2019-04-28T03:59:00.431Z,8.00
2019-04-28T04:01:30.478Z,7.90
2019-04-28T04:04:01.187Z,7.90
2019-04-28T04:06:32.274Z,7.90
2019-04-28T04:09:00.860Z,7.80
2019-04-28T04:11:33.776Z,7.70
2019-04-28T04:14:06.721Z,7.70
2019-04-28T04:16:42.806Z,7.60
2019-04-28T04:19:12.902Z,7.60
2019-04-28T04:21:41.627Z,7.60
2019-04-28T04:24:10.850Z,7.60
2019-04-28T04:26:41.210Z,7.60
2019-04-28T04:29:10.334Z,7.50
2019-04-28T04:31:41.110Z,7.50
2019-04-28T04:34:10.730Z,7.50
2019-04-28T04:36:41.679Z,7.50
2019-04-28T04:39:10.823Z,7.50
2019-04-28T04:41:43.433Z,7.50
2019-04-28T04:44:12.354Z,7.50
2019-04-28T04:46:41.566Z,7.50
2019-04-28T04:49:11.970Z,7.50
2019-04-28T04:51:43.788Z,7.50
2019-04-28T04:54:10.973Z,7.50
2019-04-28T04:56:40.177Z,7.60
2019-04-28T04:59:10.231Z,7.60
2019-04-28T05:01:41.492Z,7.60
2019-04-28T05:04:19.620Z,7.70
2019-04-28T05:06:49.621Z,7.70
2019-04-28T05:09:19.645Z,7.70
2019-04-28T05:11:50.045Z,7.70
2019-04-28T05:14:19.918Z,7.70
2019-04-28T05:16:49.831Z,7.70
2019-04-28T05:19:20.017Z,7.80
2019-04-28T05:21:50.295Z,7.80
2019-04-28T05:24:26.264Z,7.90
2019-04-28T05:26:55.214Z,8.00
2019-04-28T05:29:26.924Z,8.10
2019-04-28T05:31:54.946Z,8.20
2019-04-28T05:34:24.665Z,8.40
2019-04-28T05:36:54.145Z,8.50
2019-04-28T05:39:24.134Z,8.60
2019-04-28T05:41:57.386Z,8.70
2019-04-28T05:44:25.848Z,8.80
2019-04-28T05:46:55.576Z,8.80
2019-04-28T05:49:41.850Z,8.80
2019-04-28T05:52:29.927Z,8.70
2019-04-28T05:55:11.000Z,8.70
2019-04-28T05:57:42.780Z,8.70
2019-04-28T06:00:25.209Z,8.70
2019-04-28T06:02:56.894Z,8.60
2019-04-28T06:05:31.933Z,8.70
2019-04-28T06:10:42.824Z,8.70
2019-04-28T06:13:11.396Z,8.70
2019-04-28T06:15:41.898Z,8.70
2019-04-28T06:18:11.626Z,8.60
2019-04-28T06:20:41.427Z,8.60
2019-04-28T06:23:10.040Z,8.70
2019-04-28T06:25:38.933Z,8.70
2019-04-28T06:28:07.388Z,8.60
2019-04-28T06:30:38.172Z,8.60
2019-04-28T06:33:08.135Z,8.60
2019-04-28T06:35:39.642Z,8.70
2019-04-28T06:38:11.015Z,8.70
2019-04-28T06:40:39.467Z,8.80
2019-04-28T06:43:10.832Z,8.80
2019-04-28T06:45:39.332Z,8.80
2019-04-28T06:48:11.928Z,9.00
2019-04-28T06:50:43.311Z,9.10
2019-04-28T06:53:11.774Z,9.10
2019-04-28T06:55:42.603Z,9.10
2019-04-28T06:58:11.221Z,9.20
2019-04-28T07:00:41.390Z,9.20
2019-04-28T07:03:22.415Z,9.20
2019-04-28T07:05:40.203Z,9.30
2019-04-28T07:08:09.033Z,9.30
2019-04-28T07:10:37.689Z,9.30
2019-04-28T07:13:06.494Z,9.40
2019-04-28T07:15:36.674Z,9.40
2019-04-28T07:18:06.627Z,9.40
2019-04-28T07:20:38.249Z,9.40
2019-04-28T07:23:08.617Z,9.50
2019-04-28T07:25:37.151Z,9.70
2019-04-28T07:28:07.098Z,9.70
2019-04-28T07:30:37.293Z,9.80
2019-04-28T07:33:05.854Z,9.80
2019-04-28T07:35:34.429Z,9.80
2019-04-28T07:38:03.079Z,9.90
2019-04-28T07:40:31.776Z,9.80
2019-04-28T07:43:00.405Z,9.70
2019-04-28T07:45:28.872Z,9.60
2019-04-28T07:47:58.647Z,9.60
2019-04-28T07:50:28.509Z,9.60
2019-04-28T07:53:04.342Z,9.60
2019-04-28T07:55:32.819Z,9.60
2019-04-28T07:58:02.583Z,9.70
2019-04-28T08:00:34.963Z,9.70
2019-04-28T08:03:03.492Z,9.90
2019-04-28T08:05:33.229Z,9.90
2019-04-28T08:08:01.770Z,10.00
2019-04-28T08:10:31.373Z,10.00
2019-04-28T08:12:59.877Z,10.10
2019-04-28T08:15:30.343Z,10.20
2019-04-28T08:17:58.814Z,10.10
2019-04-28T08:20:27.371Z,10.10
2019-04-28T08:22:57.208Z,10.10
2019-04-28T08:25:25.736Z,10.10
2019-04-28T08:27:55.366Z,10.10
2019-04-28T08:30:26.720Z,10.20
2019-04-28T08:32:56.848Z,10.20
2019-04-28T08:35:25.321Z,10.20
2019-04-28T08:37:54.882Z,10.30
2019-04-28T08:40:23.412Z,10.30
2019-04-28T08:42:52.157Z,10.30
2019-04-28T08:45:21.077Z,10.30
2019-04-28T08:47:49.634Z,10.40
2019-04-28T08:50:18.424Z,10.40
2019-04-28T08:52:48.490Z,10.50
2019-04-28T08:55:17.766Z,10.50
2019-04-28T08:57:46.859Z,10.80
2019-04-28T09:00:17.304Z,11.10
2019-04-28T09:02:45.916Z,11.50
2019-04-28T09:05:14.458Z,11.50
2019-04-28T09:07:44.873Z,11.80
2019-04-28T09:10:13.596Z,12.40
2019-04-28T09:12:43.742Z,13.20
2019-04-28T09:15:13.854Z,13.80
2019-04-28T09:17:42.582Z,14.30
2019-04-28T09:20:11.276Z,14.50
2019-04-28T09:22:41.198Z,14.50
2019-04-28T09:25:09.917Z,14.50
2019-04-28T09:27:40.402Z,14.10
2019-04-28T09:30:09.221Z,13.70
2019-04-28T09:32:39.374Z,13.50
2019-04-28T09:35:09.330Z,13.50
2019-04-28T09:37:38.072Z,13.50
2019-04-28T09:40:12.998Z,13.20
2019-04-28T09:42:53.147Z,12.90
2019-04-28T09:45:29.890Z,12.60
2019-04-28T09:47:59.836Z,12.20
2019-04-28T09:50:28.384Z,12.10
2019-04-28T09:52:57.232Z,11.90
2019-04-28T09:55:26.878Z,11.70
2019-04-28T09:57:56.962Z,11.50
2019-04-28T10:00:27.524Z,11.30
2019-04-28T10:02:56.158Z,11.10
2019-04-28T10:05:25.731Z,11.00
2019-04-28T10:07:54.250Z,10.90
2019-04-28T10:10:22.792Z,10.80
2019-04-28T10:12:51.252Z,10.80
2019-04-28T10:15:19.763Z,10.80
2019-04-28T10:17:51.214Z,10.80
2019-04-28T10:20:19.927Z,10.80
2019-04-28T10:22:48.484Z,10.90
2019-04-28T10:25:17.002Z,10.90
2019-04-28T10:27:46.491Z,10.80
2019-04-28T10:30:15.419Z,10.80
2019-04-28T10:32:44.813Z,10.70
2019-04-28T10:35:13.632Z,10.70
2019-04-28T10:37:45.522Z,10.80
2019-04-28T10:40:29.048Z,10.90
2019-04-28T10:42:57.738Z,11.00
2019-04-28T10:45:27.871Z,11.10
2019-04-28T10:47:56.453Z,11.10
2019-04-28T10:50:25.933Z,11.10
2019-04-28T10:52:55.917Z,11.20
2019-04-28T10:55:25.245Z,11.30
2019-04-28T10:57:57.206Z,11.30
2019-04-28T11:00:28.592Z,11.30
2019-04-28T11:03:03.174Z,11.40
2019-04-28T11:05:42.725Z,11.30
2019-04-28T11:08:13.043Z,11.50
2019-04-28T11:10:43.219Z,11.50
2019-04-28T11:13:13.006Z,11.50
2019-04-28T11:15:41.581Z,11.60
2019-04-28T11:18:12.783Z,11.50
2019-04-28T11:20:42.469Z,11.50
2019-04-28T11:23:11.021Z,11.50
2019-04-28T11:25:41.749Z,11.60
2019-04-28T11:28:12.047Z,11.60
2019-04-28T11:30:40.673Z,11.60
2019-04-28T11:33:10.931Z,11.60
2019-04-28T11:35:41.119Z,11.70
2019-04-28T11:38:09.832Z,11.80
2019-04-28T11:40:42.393Z,11.80
2019-04-28T11:43:10.891Z,11.90
2019-04-28T11:45:39.463Z,12.00
2019-04-28T11:48:07.965Z,12.10
2019-04-28T11:50:38.106Z,12.20
2019-04-28T11:53:06.595Z,12.30
2019-04-28T11:55:38.250Z,12.20
2019-04-28T11:58:06.783Z,12.10
2019-04-28T12:00:36.150Z,12.10
2019-04-28T12:03:04.748Z,12.10
2019-04-28T12:05:38.554Z,12.10
2019-04-28T12:08:07.654Z,12.10
2019-04-28T12:10:50.889Z,12.20
2019-04-28T12:13:23.714Z,12.30
2019-04-28T12:16:10.151Z,12.40
2019-04-28T12:18:58.321Z,12.40
2019-04-28T12:21:17.282Z,12.50
2019-04-28T12:23:48.488Z,12.70
2019-04-28T12:26:17.005Z,12.80
2019-04-28T12:28:47.022Z,13.00
2019-04-28T12:31:15.500Z,13.40
2019-04-28T12:33:48.688Z,13.90
2019-04-28T12:36:17.517Z,14.20
2019-04-28T12:38:47.538Z,14.30
2019-04-28T12:41:21.020Z,14.50
2019-04-28T12:43:50.659Z,14.70
2019-04-28T12:46:21.912Z,15.10
2019-04-28T12:48:52.610Z,15.60
2019-04-28T12:51:23.747Z,15.70
2019-04-28T12:53:53.840Z,15.90
2019-04-28T12:56:22.337Z,15.80
2019-04-28T12:58:53.666Z,15.80
2019-04-28T13:01:36.034Z,15.90
2019-04-28T13:04:17.219Z,15.70
2019-04-28T13:06:47.432Z,15.60
2019-04-28T13:09:18.176Z,15.50
2019-04-28T13:11:50.088Z,15.50
2019-04-28T13:14:18.784Z,15.60
2019-04-28T13:16:47.264Z,15.70
2019-04-28T13:19:15.742Z,15.70
2019-04-28T13:21:46.172Z,15.50
2019-04-28T13:24:14.699Z,15.00
2019-04-28T13:26:43.262Z,14.90
2019-04-28T13:29:11.968Z,14.70
2019-04-28T13:31:43.030Z,14.60
2019-04-28T13:34:13.302Z,14.50
2019-04-28T13:36:41.978Z,14.50
2019-04-28T13:39:12.444Z,14.20
2019-04-28T13:41:41.482Z,14.10
2019-04-28T13:44:11.651Z,13.90
2019-04-28T13:46:41.700Z,13.80
2019-04-28T13:49:15.032Z,13.60
2019-04-28T13:51:43.591Z,13.50
2019-04-28T13:54:14.982Z,13.40
2019-04-28T13:56:43.812Z,13.40
2019-04-28T13:59:16.845Z,13.40
2019-04-28T14:01:52.404Z,13.40
2019-04-28T14:04:25.209Z,13.30
2019-04-28T14:06:54.774Z,13.20
2019-04-28T14:09:24.931Z,13.10
2019-04-28T14:11:53.415Z,13.10
2019-04-28T14:14:23.120Z,13.00
2019-04-28T14:16:51.633Z,13.00
2019-04-28T14:19:21.355Z,13.00
2019-04-28T14:21:49.905Z,12.90
2019-04-28T14:24:21.112Z,12.80
2019-04-28T14:26:50.131Z,12.90
2019-04-28T14:29:18.726Z,12.80
2019-04-28T14:31:47.503Z,12.70
2019-04-28T14:34:20.191Z,12.60
2019-04-28T14:36:50.161Z,12.50
2019-04-28T14:39:19.937Z,12.50
2019-04-28T14:41:51.530Z,12.50
2019-04-28T14:44:20.467Z,12.60
2019-04-28T14:46:51.892Z,12.70
2019-04-28T14:49:20.403Z,12.70
2019-04-28T14:51:50.303Z,12.70
2019-04-28T14:54:18.814Z,12.80
2019-04-28T14:56:51.518Z,12.80
2019-04-28T14:59:20.225Z,12.90
2019-04-28T15:02:09.409Z,12.90
2019-04-28T15:04:53.073Z,12.90
2019-04-28T15:07:39.388Z,12.90
2019-04-28T15:10:27.075Z,13.00
2019-04-28T15:12:56.387Z,13.00
2019-04-28T15:15:27.908Z,13.10
2019-04-28T15:17:59.114Z,13.20
2019-04-28T15:20:27.606Z,13.30
2019-04-28T15:23:01.665Z,13.30
2019-04-28T15:25:31.309Z,13.20
2019-04-28T15:27:59.777Z,13.20
2019-04-28T15:30:28.332Z,13.30
2019-04-28T15:33:02.148Z,13.50
2019-04-28T15:35:32.285Z,13.80
2019-04-28T15:38:01.383Z,14.30
2019-04-28T15:40:29.849Z,15.10
2019-04-28T15:42:58.314Z,15.40
2019-04-28T15:45:30.105Z,15.30
2019-04-28T15:47:58.566Z,15.20
2019-04-28T15:50:27.024Z,15.00
2019-04-28T15:52:56.660Z,14.70
2019-04-28T15:55:27.132Z,14.40
2019-04-28T15:57:55.618Z,14.20
2019-04-28T16:00:24.194Z,14.00
2019-04-28T16:02:54.158Z,13.90
2019-04-28T16:05:23.667Z,13.70
2019-04-28T16:07:53.227Z,13.70
2019-04-28T16:10:23.784Z,13.70
2019-04-28T16:12:54.992Z,13.50
2019-04-28T16:15:24.248Z,13.50
2019-04-28T16:17:52.712Z,13.40
2019-04-28T16:20:21.272Z,13.20
2019-04-28T16:22:49.754Z,13.10
2019-04-28T16:25:18.339Z,13.00
2019-04-28T16:27:47.171Z,13.00
2019-04-28T16:30:18.009Z,12.90
2019-04-28T16:32:46.562Z,12.80
2019-04-28T16:35:15.622Z,12.80
2019-04-28T16:37:44.072Z,12.80
2019-04-28T16:40:14.871Z,12.70
2019-04-28T16:42:43.873Z,12.60
2019-04-28T16:45:14.337Z,12.60
2019-04-28T16:47:42.936Z,12.50
2019-04-28T16:50:14.927Z,12.40
2019-04-28T16:52:46.197Z,12.20
2019-04-28T16:55:22.410Z,12.10
2019-04-28T16:58:08.721Z,12.10
2019-04-28T17:00:42.939Z,12.10
2019-04-28T17:03:13.039Z,12.10
2019-04-28T17:05:41.563Z,12.20
2019-04-28T17:08:11.160Z,12.20
2019-04-28T17:10:39.617Z,12.30
2019-04-28T17:13:10.978Z,12.30
2019-04-28T17:15:40.131Z,12.30
2019-04-28T17:18:10.046Z,12.30
2019-04-28T17:20:40.743Z,12.20
2019-04-28T17:23:09.291Z,12.20
2019-04-28T17:25:37.792Z,12.20
2019-04-28T17:28:07.715Z,12.20
2019-04-28T17:30:36.467Z,12.20
2019-04-28T17:33:06.223Z,12.20
2019-04-28T17:35:37.219Z,12.30
2019-04-28T17:38:06.850Z,12.20
2019-04-28T17:40:35.891Z,12.20
2019-04-28T17:43:04.545Z,12.10
2019-04-28T17:45:36.813Z,12.10
2019-04-28T17:48:11.997Z,12.00
2019-04-28T17:50:38.242Z,12.00
2019-04-28T17:53:12.275Z,11.90
2019-04-28T17:55:40.864Z,11.90
2019-04-28T17:58:12.704Z,11.80
2019-04-28T18:00:54.824Z,11.80
2019-04-28T18:03:26.142Z,11.70
2019-04-28T18:05:57.793Z,11.60
2019-04-28T18:08:26.925Z,11.60
2019-04-28T18:10:55.410Z,11.50
2019-04-28T18:13:23.971Z,11.40
2019-04-28T18:15:56.854Z,11.40
2019-04-28T18:18:33.407Z,11.30
2019-04-28T18:21:02.072Z,11.20
2019-04-28T18:23:30.618Z,11.20
2019-04-28T18:25:59.275Z,11.10
2019-04-28T18:28:29.463Z,11.00
2019-04-28T18:31:02.462Z,11.00
2019-04-28T18:33:38.867Z,10.90
2019-04-28T18:36:19.195Z,10.90
2019-04-28T18:38:52.971Z,10.80
2019-04-28T18:41:41.278Z,10.70
2019-04-28T18:44:14.589Z,10.70
2019-04-28T18:46:43.089Z,10.60
2019-04-28T18:49:12.224Z,10.50
2019-04-28T18:51:42.227Z,10.50
2019-04-28T18:54:14.700Z,10.40
2019-04-28T18:56:43.315Z,10.40
2019-04-28T18:59:13.060Z,10.30
2019-04-28T19:01:44.298Z,10.30
2019-04-28T19:04:12.942Z,10.20
2019-04-28T19:06:44.694Z,10.10
2019-04-28T19:09:31.202Z,10.10
2019-04-28T19:12:01.323Z,10.00
2019-04-28T19:14:37.418Z,9.90
2019-04-28T19:17:09.673Z,9.80
2019-04-28T19:19:40.694Z,9.70
2019-04-28T19:22:10.757Z,9.70
2019-04-28T19:24:43.294Z,9.60
2019-04-28T19:27:11.853Z,9.50
2019-04-28T19:29:43.134Z,9.40
2019-04-28T19:32:12.742Z,9.40
2019-04-28T19:34:43.366Z,9.30
2019-04-28T19:37:11.855Z,9.20
2019-04-28T19:39:41.823Z,9.10
2019-04-28T19:42:10.302Z,9.00
2019-04-28T19:44:40.362Z,8.90
2019-04-28T19:47:11.677Z,8.90
2019-04-28T19:49:40.212Z,8.80
2019-04-28T19:52:08.692Z,8.80
2019-04-28T19:54:38.892Z,8.70
2019-04-28T19:57:08.984Z,8.70
2019-04-28T19:59:56.574Z,8.60
2019-04-28T20:02:28.218Z,8.60
2019-04-28T20:05:00.552Z,8.50
2019-04-28T20:07:29.065Z,8.50
2019-04-28T20:09:57.596Z,8.40
2019-04-28T20:12:29.152Z,8.40
2019-04-28T20:14:59.160Z,8.40
2019-04-28T20:17:28.564Z,8.30
2019-04-28T20:19:57.035Z,8.30
2019-04-28T20:22:25.640Z,8.20
2019-04-28T20:24:54.187Z,8.20
2019-04-28T20:27:22.675Z,8.10
2019-04-28T20:29:53.938Z,8.10
2019-04-28T20:32:24.065Z,8.00
2019-04-28T20:35:12.384Z,7.90
2019-04-28T20:37:46.322Z,7.90
2019-04-28T20:40:22.238Z,7.90
2019-04-28T20:43:06.466Z,7.80
2019-04-28T20:45:35.078Z,7.80
2019-04-28T20:48:04.683Z,7.80
2019-04-28T20:50:33.162Z,7.80
2019-04-28T20:53:04.054Z,7.70
2019-04-28T20:55:32.519Z,7.70
2019-04-28T20:58:03.937Z,7.70
2019-04-28T21:00:33.853Z,7.60
2019-04-28T21:03:02.411Z,7.60
2019-04-28T21:05:32.043Z,7.50
2019-04-28T21:08:00.579Z,7.50
2019-04-28T21:10:37.713Z,7.40
2019-04-28T21:13:00.455Z,7.40
2019-04-28T21:15:33.766Z,7.40
2019-04-28T21:18:02.920Z,7.40
2019-04-28T21:20:31.471Z,7.30
2019-04-28T21:22:59.925Z,7.30
2019-04-28T21:25:30.871Z,7.20
2019-04-28T21:27:59.349Z,7.20
2019-04-28T21:30:28.776Z,7.20
2019-04-28T21:33:00.049Z,7.10
2019-04-28T21:35:28.953Z,7.10
2019-04-28T21:37:57.502Z,7.10
2019-04-28T21:40:28.261Z,7.10
2019-04-28T21:43:04.127Z,7.00
2019-04-28T21:45:50.824Z,7.00
2019-04-28T21:48:32.743Z,7.00
2019-04-28T21:51:02.671Z,6.90
2019-04-28T21:53:31.129Z,6.90
2019-04-28T21:56:00.693Z,6.90
2019-04-28T21:58:33.371Z,6.90
2019-04-28T22:00:59.836Z,6.90
2019-04-28T22:03:28.496Z,6.90
2019-04-28T22:05:56.985Z,6.80
2019-04-28T22:08:25.513Z,6.80
2019-04-28T22:10:53.978Z,6.70
2019-04-28T22:13:24.216Z,6.70
2019-04-28T22:15:52.700Z,6.70
2019-04-28T22:18:22.460Z,6.60
2019-04-28T22:20:55.362Z,6.60
2019-04-28T22:23:28.373Z,6.60
2019-04-28T22:25:57.114Z,6.60
2019-04-28T22:28:27.158Z,6.50
2019-04-28T22:33:31.618Z,6.50
2019-04-28T22:36:00.156Z,6.50
2019-04-28T22:38:29.786Z,6.40
2019-04-28T22:41:17.619Z,6.40
2019-04-28T22:43:46.268Z,6.40
2019-04-28T22:46:14.888Z,6.30
2019-04-28T22:48:46.466Z,6.30
2019-04-28T22:51:16.462Z,6.30
2019-04-28T22:53:49.194Z,6.20
2019-04-28T22:59:16.103Z,6.20
2019-04-28T23:01:49.874Z,6.10
2019-04-28T23:04:36.103Z,6.10
2019-04-28T23:07:16.846Z,6.10
2019-04-28T23:09:36.707Z,6.10
2019-04-28T23:12:11.485Z,6.00
2019-04-28T23:14:41.611Z,6.00
2019-04-28T23:17:12.688Z,6.00
2019-04-28T23:19:44.240Z,6.00
2019-04-28T23:22:18.611Z,5.90
2019-04-28T23:24:51.494Z,5.90
2019-04-28T23:27:21.186Z,5.90
2019-04-28T23:29:51.209Z,5.90
2019-04-28T23:32:21.200Z,5.90
2019-04-28T23:34:51.244Z,5.80
2019-04-28T23:37:22.706Z,5.80
2019-04-28T23:39:52.836Z,5.80
2019-04-28T23:42:23.653Z,5.80
2019-04-28T23:44:59.231Z,5.70
2019-04-28T23:47:50.990Z,5.70
2019-04-28T23:50:21.160Z,5.60
2019-04-28T23:52:54.556Z,5.60
2019-04-28T23:55:26.048Z,5.60
2019-04-28T23:57:56.104Z,5.60
